createdAt,value
2023-03-10T00:02:49.745Z,100696.44
2023-03-10T00:07:52.765Z,100695.47
2023-03-10T00:12:55.591Z,100688.47
2023-03-10T00:17:58.409Z,100692.03
2023-03-10T00:23:01.105Z,100676.69
2023-03-10T00:28:03.842Z,100673.28
2023-03-10T00:33:06.635Z,100669.06
2023-03-10T00:38:09.368Z,100665.00
2023-03-10T00:43:12.114Z,100668.41
2023-03-10T00:48:14.814Z,100673.63
2023-03-10T00:53:17.690Z,100673.97
2023-03-10T00:58:20.233Z,100672.84
2023-03-10T01:03:24.275Z,100671.75
2023-03-10T01:08:27.397Z,100658.13
2023-03-10T01:13:30.284Z,100662.81
2023-03-10T01:18:33.157Z,100662.34
2023-03-10T01:23:36.131Z,100661.72
2023-03-10T01:28:38.975Z,100665.59
2023-03-10T01:33:43.071Z,100658.97
2023-03-10T01:38:48.590Z,100657.97
2023-03-10T01:43:54.409Z,100662.34
2023-03-10T01:49:02.252Z,100656.50
2023-03-10T01:54:09.650Z,100651.16
2023-03-10T01:59:14.998Z,100650.34
2023-03-10T02:04:27.311Z,100659.09
2023-03-10T02:09:31.294Z,100658.59
2023-03-10T02:14:36.102Z,100646.13
2023-03-10T02:25:22.597Z,100659.41
2023-03-10T02:35:37.365Z,100649.22
2023-03-10T02:40:52.637Z,100643.22
2023-03-10T02:46:03.275Z,100640.66
2023-03-10T02:51:11.662Z,100639.97
2023-03-10T02:56:16.595Z,100641.91
2023-03-10T03:01:21.542Z,100642.56
2023-03-10T03:06:24.391Z,100639.81
2023-03-10T03:11:27.799Z,100642.09
2023-03-10T03:16:30.761Z,100643.88
2023-03-10T03:21:37.896Z,100633.69
2023-03-10T03:26:40.822Z,100629.97
2023-03-10T03:31:49.059Z,100632.22
2023-03-10T03:36:55.559Z,100631.41
2023-03-10T03:42:04.290Z,100648.25
2023-03-10T03:47:14.704Z,100656.03
2023-03-10T03:52:17.848Z,100646.47
2023-03-10T03:57:21.658Z,100642.59
2023-03-10T04:02:24.641Z,100645.84
2023-03-10T04:07:28.408Z,100655.38
2023-03-10T04:12:31.187Z,100644.38
2023-03-10T04:17:34.877Z,100638.53
2023-03-10T04:22:38.029Z,100635.78
2023-03-10T04:27:42.152Z,100636.44
2023-03-10T04:32:49.137Z,100636.13
2023-03-10T04:37:54.106Z,100641.44
2023-03-10T04:42:59.048Z,100635.47
2023-03-10T04:48:02.838Z,100640.28
2023-03-10T04:53:07.202Z,100647.22
2023-03-10T04:58:10.094Z,100652.38
2023-03-10T05:03:13.406Z,100647.81
2023-03-10T05:08:16.264Z,100644.66
2023-03-10T05:13:19.088Z,100635.56
2023-03-10T05:18:21.981Z,100635.78
2023-03-10T05:23:27.185Z,100640.13
2023-03-10T05:28:30.766Z,100641.38
2023-03-10T05:33:37.841Z,100635.28
2023-03-10T05:38:40.802Z,100634.47
2023-03-10T05:43:48.041Z,100639.56
2023-03-10T05:48:53.165Z,100636.56
2023-03-10T05:53:56.734Z,100642.00
2023-03-10T05:59:03.829Z,100633.28
2023-03-10T06:04:10.096Z,100639.91
2023-03-10T06:09:12.975Z,100645.09
2023-03-10T06:14:15.927Z,100648.53
2023-03-10T06:19:19.667Z,100642.28
2023-03-10T06:24:22.476Z,100639.41
2023-03-10T06:29:25.371Z,100635.47
2023-03-10T06:37:13.960Z,100633.09
2023-03-10T06:42:16.741Z,100640.94
2023-03-10T06:47:19.440Z,100634.47
2023-03-10T06:52:23.010Z,100632.94
2023-03-10T06:57:25.795Z,100626.56
2023-03-10T07:02:28.664Z,100617.53
2023-03-10T07:07:31.496Z,100612.50
2023-03-10T07:12:34.258Z,100611.78
2023-03-10T07:17:37.016Z,100609.22
2023-03-10T07:22:40.794Z,100613.38
2023-03-10T07:27:43.644Z,100608.66
2023-03-10T07:32:46.600Z,100607.97
2023-03-10T07:37:49.624Z,100590.13
2023-03-10T07:42:54.986Z,100589.50
2023-03-10T07:47:58.561Z,100574.06
2023-03-10T07:53:01.765Z,100567.88
2023-03-10T07:58:04.694Z,100564.97
2023-03-10T08:03:07.556Z,100571.16
2023-03-10T08:08:11.437Z,100575.94
2023-03-10T08:13:15.024Z,100597.91
2023-03-10T08:18:17.801Z,100574.97
2023-03-10T08:23:20.599Z,100589.00
2023-03-10T08:28:23.333Z,100575.94
2023-03-10T08:33:28.788Z,100572.47
2023-03-10T08:38:31.645Z,100562.69
2023-03-10T08:43:34.629Z,100568.44
2023-03-10T08:48:37.775Z,100554.06
2023-03-10T08:53:40.966Z,100549.22
2023-03-10T08:58:44.597Z,100548.59
2023-03-10T09:03:47.346Z,100552.66
2023-03-10T09:08:50.848Z,100540.16
2023-03-10T09:13:53.882Z,100531.03
2023-03-10T09:18:59.255Z,100534.84
2023-03-10T09:24:03.040Z,100525.34
2023-03-10T09:29:06.042Z,100513.56
2023-03-10T09:34:11.745Z,100526.66
2023-03-10T09:39:14.416Z,100518.03
2023-03-10T09:54:59.241Z,100491.97
2023-03-10T10:00:08.804Z,100484.78
2023-03-10T10:10:42.706Z,100480.94
2023-03-10T10:16:07.293Z,100487.66
2023-03-10T10:21:33.520Z,100470.16
2023-03-10T10:26:43.278Z,100479.78
2023-03-10T10:32:06.132Z,100474.59
2023-03-10T10:42:36.140Z,100472.31
2023-03-10T10:47:55.915Z,100476.69
2023-03-10T11:24:58.740Z,100504.38
2023-03-10T11:35:29.575Z,100505.38
2023-03-10T11:40:44.925Z,100499.38
2023-03-10T11:45:53.045Z,100516.94
2023-03-10T11:54:34.270Z,100518.47
2023-03-10T11:59:47.637Z,100514.69
2023-03-10T12:15:30.571Z,100498.53
2023-03-10T12:20:34.310Z,100484.28
2023-03-10T12:41:45.567Z,100503.72
2023-03-10T12:47:15.994Z,100490.84
2023-03-10T12:52:27.265Z,100489.56
2023-03-10T13:08:25.621Z,100510.84
2023-03-10T13:13:31.888Z,100506.81
2023-03-10T13:18:35.824Z,100516.41
2023-03-10T13:23:38.701Z,100508.41
2023-03-10T13:28:51.909Z,100486.00
2023-03-10T13:33:56.420Z,100479.09
2023-03-10T13:39:04.125Z,100483.81
2023-03-10T13:44:16.308Z,100499.22
2023-03-10T13:49:22.531Z,100502.38
2023-03-10T13:54:30.029Z,100497.59
2023-03-10T13:59:34.710Z,100507.13
2023-03-10T14:04:42.915Z,100507.06
2023-03-10T14:09:47.887Z,100501.03
2023-03-10T14:14:52.066Z,100504.16
2023-03-10T14:19:54.949Z,100510.81
2023-03-10T14:24:59.768Z,100520.34
2023-03-10T14:30:11.120Z,100529.50
2023-03-10T14:35:16.490Z,100522.84
2023-03-10T14:40:21.729Z,100525.53
2023-03-10T14:45:35.174Z,100531.69
2023-03-10T14:50:38.009Z,100540.41
2023-03-10T14:55:43.105Z,100538.69
2023-03-10T15:00:46.555Z,100538.03
2023-03-10T15:05:50.547Z,100540.31
2023-03-10T15:10:53.431Z,100548.59
2023-03-10T15:15:56.451Z,100554.75
2023-03-10T15:21:00.601Z,100561.00
2023-03-10T15:26:09.856Z,100562.78
2023-03-10T15:31:12.611Z,100568.63
2023-03-10T15:36:15.679Z,100586.81
2023-03-10T15:41:18.781Z,100588.31
2023-03-10T15:46:21.716Z,100610.44
2023-03-10T15:51:24.581Z,100603.94
2023-03-10T15:56:27.394Z,100611.75
2023-03-10T16:01:30.826Z,100621.22
2023-03-10T16:06:34.273Z,100617.88
2023-03-10T16:11:37.221Z,100643.22
2023-03-10T16:16:40.373Z,100644.25
2023-03-10T16:21:45.359Z,100650.84
2023-03-10T16:26:49.082Z,100646.78
2023-03-10T16:31:52.077Z,100655.34
2023-03-10T16:36:55.852Z,100650.88
2023-03-10T16:41:59.297Z,100653.06
2023-03-10T16:47:03.382Z,100660.38
2023-03-10T16:52:10.785Z,100662.66
2023-03-10T16:57:16.190Z,100655.41
2023-03-10T17:02:18.986Z,100655.97
2023-03-10T17:07:21.820Z,100662.94
2023-03-10T17:12:24.664Z,100666.09
2023-03-10T17:17:30.099Z,100672.91
2023-03-10T17:22:33.517Z,100675.31
2023-03-10T17:27:36.362Z,100669.69
2023-03-10T18:03:32.685Z,100698.06
2023-03-10T18:08:35.709Z,100702.28
2023-03-10T18:13:40.569Z,100697.69
2023-03-10T18:18:43.659Z,100700.31
2023-03-10T18:23:49.710Z,100701.09
2023-03-10T18:28:52.511Z,100712.53
2023-03-10T18:33:55.801Z,100714.38
2023-03-10T18:38:59.762Z,100714.22
2023-03-10T18:44:02.917Z,100722.28
2023-03-10T18:49:05.852Z,100714.97
2023-03-10T18:54:10.255Z,100730.09
2023-03-10T18:59:14.002Z,100733.09
2023-03-10T19:04:17.039Z,100733.34
2023-03-10T19:09:20.483Z,100745.06
2023-03-10T19:14:24.112Z,100756.28
2023-03-10T19:19:28.597Z,100760.31
2023-03-10T19:24:31.122Z,100757.56
2023-03-10T19:29:33.859Z,100755.56
2023-03-10T19:34:36.677Z,100757.34
2023-03-10T19:39:39.415Z,100757.34
2023-03-10T19:44:43.183Z,100760.09
2023-03-10T19:49:46.101Z,100757.69
2023-03-10T19:54:48.923Z,100766.25
2023-03-10T19:59:52.152Z,100771.94
2023-03-10T20:04:55.240Z,100775.31
2023-03-10T20:09:57.954Z,100777.75
2023-03-10T20:15:01.425Z,100783.19
2023-03-10T20:20:10.855Z,100766.78
2023-03-10T20:25:17.570Z,100767.56
2023-03-10T20:30:23.836Z,100771.38
2023-03-10T20:35:28.650Z,100781.81
2023-03-10T20:40:31.322Z,100782.72
2023-03-10T20:45:34.928Z,100781.59
2023-03-10T20:50:37.527Z,100782.31
2023-03-10T20:55:41.706Z,100778.50
2023-03-10T21:00:47.791Z,100777.69
2023-03-10T21:05:50.645Z,100772.84
2023-03-10T21:10:53.242Z,100776.31
2023-03-10T21:15:55.875Z,100788.22
2023-03-10T21:20:58.725Z,100777.59
2023-03-10T21:26:01.326Z,100789.47
2023-03-10T21:31:04.671Z,100798.44
2023-03-10T21:36:08.746Z,100799.84
2023-03-10T21:41:15.188Z,100816.19
2023-03-10T21:46:17.941Z,100816.19
2023-03-10T21:51:23.710Z,100813.22
2023-03-10T21:56:28.869Z,100815.78
2023-03-10T22:01:31.656Z,100826.59
2023-03-10T22:06:34.527Z,100830.75
2023-03-10T22:11:37.733Z,100832.63
2023-03-10T22:16:40.413Z,100839.63
2023-03-10T22:21:42.996Z,100852.59
2023-03-10T22:26:45.536Z,100863.72
2023-03-10T22:31:50.549Z,100860.50
2023-03-10T22:36:53.177Z,100859.16
2023-03-10T22:41:55.860Z,100866.53
2023-03-10T22:46:58.582Z,100871.44
2023-03-10T22:52:02.737Z,100884.09
2023-03-10T22:57:05.626Z,100881.75
2023-03-10T23:02:08.368Z,100884.69
2023-03-10T23:07:11.394Z,100900.47
2023-03-10T23:12:13.951Z,100893.59
2023-03-10T23:17:16.539Z,100891.59
2023-03-10T23:22:19.130Z,100893.59
2023-03-10T23:27:21.687Z,100896.94
2023-03-10T23:32:24.269Z,100898.13
2023-03-10T23:37:26.855Z,100895.31
2023-03-10T23:42:29.421Z,100893.56
2023-03-10T23:47:34.690Z,100900.28
2023-03-10T23:52:37.301Z,100903.59
2023-03-10T23:57:39.828Z,100909.41
